sensor_id;sensor_type;location;lat;lon;timestamp;P1;durP1;ratioP1;P2;durP2;ratioP2
16775;SDS011;8505;49.456;8.164;2022-07-10T00:01:05;4.45;;;2.50;;
16775;SDS011;8505;49.456;8.164;2022-07-10T00:03:33;5.18;;;2.17;;
16775;SDS011;8505;49.456;8.164;2022-07-10T00:06:01;3.47;;;2.00;;
16775;SDS011;8505;49.456;8.164;2022-07-10T00:08:28;3.90;;;2.08;;
16775;SDS011;8505;49.456;8.164;2022-07-10T00:10:56;8.07;;;2.33;;
16775;SDS011;8505;49.456;8.164;2022-07-10T00:13:24;4.53;;;2.03;;
16775;SDS011;8505;49.456;8.164;2022-07-10T00:15:51;4.47;;;2.05;;
16775;SDS011;8505;49.456;8.164;2022-07-10T00:18:20;5.93;;;2.10;;
16775;SDS011;8505;49.456;8.164;2022-07-10T00:20:48;4.90;;;2.00;;
16775;SDS011;8505;49.456;8.164;2022-07-10T00:23:15;6.10;;;2.20;;
16775;SDS011;8505;49.456;8.164;2022-07-10T00:25:43;4.72;;;2.05;;
16775;SDS011;8505;49.456;8.164;2022-07-10T00:28:11;6.15;;;2.20;;
16775;SDS011;8505;49.456;8.164;2022-07-10T00:30:38;6.43;;;2.03;;
16775;SDS011;8505;49.456;8.164;2022-07-10T00:33:06;6.35;;;2.13;;
16775;SDS011;8505;49.456;8.164;2022-07-10T00:35:35;5.18;;;2.10;;
16775;SDS011;8505;49.456;8.164;2022-07-10T00:38:03;5.35;;;1.92;;
16775;SDS011;8505;49.456;8.164;2022-07-10T00:40:31;6.32;;;2.22;;
16775;SDS011;8505;49.456;8.164;2022-07-10T00:42:58;7.03;;;2.20;;
16775;SDS011;8505;49.456;8.164;2022-07-10T00:45:26;3.90;;;1.98;;
16775;SDS011;8505;49.456;8.164;2022-07-10T00:47:53;5.57;;;2.13;;
16775;SDS011;8505;49.456;8.164;2022-07-10T00:50:21;7.57;;;1.73;;
16775;SDS011;8505;49.456;8.164;2022-07-10T00:52:50;6.18;;;1.95;;
16775;SDS011;8505;49.456;8.164;2022-07-10T00:55:18;5.35;;;2.10;;
16775;SDS011;8505;49.456;8.164;2022-07-10T00:57:46;5.13;;;1.88;;
16775;SDS011;8505;49.456;8.164;2022-07-10T01:00:14;3.92;;;1.90;;
16775;SDS011;8505;49.456;8.164;2022-07-10T01:02:42;6.32;;;1.85;;
16775;SDS011;8505;49.456;8.164;2022-07-10T01:05:11;5.22;;;1.80;;
16775;SDS011;8505;49.456;8.164;2022-07-10T01:07:38;5.93;;;2.00;;
16775;SDS011;8505;49.456;8.164;2022-07-10T01:10:08;4.53;;;1.70;;
16775;SDS011;8505;49.456;8.164;2022-07-10T01:12:37;5.72;;;1.70;;
16775;SDS011;8505;49.456;8.164;2022-07-10T01:15:06;4.30;;;1.70;;
16775;SDS011;8505;49.456;8.164;2022-07-10T01:17:34;4.13;;;2.17;;
16775;SDS011;8505;49.456;8.164;2022-07-10T01:20:04;3.80;;;1.80;;
16775;SDS011;8505;49.456;8.164;2022-07-10T01:22:34;4.15;;;1.60;;
16775;SDS011;8505;49.456;8.164;2022-07-10T01:25:03;4.03;;;2.00;;
16775;SDS011;8505;49.456;8.164;2022-07-10T01:27:32;6.80;;;2.17;;
16775;SDS011;8505;49.456;8.164;2022-07-10T01:30:00;7.38;;;2.00;;
16775;SDS011;8505;49.456;8.164;2022-07-10T01:32:28;4.88;;;1.80;;
16775;SDS011;8505;49.456;8.164;2022-07-10T01:35:05;5.55;;;1.98;;
16775;SDS011;8505;49.456;8.164;2022-07-10T01:37:34;3.97;;;1.70;;
16775;SDS011;8505;49.456;8.164;2022-07-10T01:40:02;7.00;;;1.80;;
16775;SDS011;8505;49.456;8.164;2022-07-10T01:42:31;6.85;;;1.80;;
16775;SDS011;8505;49.456;8.164;2022-07-10T01:44:58;4.97;;;1.60;;
16775;SDS011;8505;49.456;8.164;2022-07-10T01:47:32;5.85;;;1.70;;
16775;SDS011;8505;49.456;8.164;2022-07-10T01:49:59;6.22;;;1.70;;
16775;SDS011;8505;49.456;8.164;2022-07-10T01:52:27;4.97;;;1.60;;
16775;SDS011;8505;49.456;8.164;2022-07-10T01:54:56;5.20;;;1.77;;
16775;SDS011;8505;49.456;8.164;2022-07-10T01:57:24;4.22;;;1.60;;
16775;SDS011;8505;49.456;8.164;2022-07-10T01:59:51;5.47;;;1.77;;
16775;SDS011;8505;49.456;8.164;2022-07-10T02:02:19;4.95;;;1.58;;
16775;SDS011;8505;49.456;8.164;2022-07-10T02:04:47;4.97;;;1.50;;
16775;SDS011;8505;49.456;8.164;2022-07-10T02:07:15;4.78;;;1.63;;
16775;SDS011;8505;49.456;8.164;2022-07-10T02:09:45;6.53;;;1.70;;
16775;SDS011;8505;49.456;8.164;2022-07-10T02:12:14;6.93;;;1.63;;
16775;SDS011;8505;49.456;8.164;2022-07-10T02:14:42;5.82;;;1.55;;
16775;SDS011;8505;49.456;8.164;2022-07-10T02:17:10;6.63;;;1.60;;
16775;SDS011;8505;49.456;8.164;2022-07-10T02:19:37;5.97;;;1.60;;
16775;SDS011;8505;49.456;8.164;2022-07-10T02:22:05;5.57;;;1.50;;
16775;SDS011;8505;49.456;8.164;2022-07-10T02:24:33;5.38;;;1.60;;
16775;SDS011;8505;49.456;8.164;2022-07-10T02:27:00;4.80;;;1.80;;
16775;SDS011;8505;49.456;8.164;2022-07-10T02:29:30;4.57;;;1.50;;
16775;SDS011;8505;49.456;8.164;2022-07-10T02:31:57;5.15;;;1.42;;
16775;SDS011;8505;49.456;8.164;2022-07-10T02:34:25;6.85;;;1.58;;
16775;SDS011;8505;49.456;8.164;2022-07-10T02:36:53;5.43;;;1.60;;
16775;SDS011;8505;49.456;8.164;2022-07-10T02:39:20;4.65;;;1.48;;
16775;SDS011;8505;49.456;8.164;2022-07-10T02:41:49;7.18;;;1.70;;
16775;SDS011;8505;49.456;8.164;2022-07-10T02:44:17;5.40;;;1.48;;
16775;SDS011;8505;49.456;8.164;2022-07-10T02:46:46;7.47;;;1.80;;
16775;SDS011;8505;49.456;8.164;2022-07-10T02:49:14;5.47;;;1.60;;
16775;SDS011;8505;49.456;8.164;2022-07-10T02:51:41;5.50;;;1.70;;
16775;SDS011;8505;49.456;8.164;2022-07-10T02:54:09;6.07;;;1.42;;
16775;SDS011;8505;49.456;8.164;2022-07-10T02:56:37;6.25;;;1.80;;
16775;SDS011;8505;49.456;8.164;2022-07-10T02:59:05;5.70;;;1.70;;
16775;SDS011;8505;49.456;8.164;2022-07-10T03:01:33;4.97;;;1.70;;
16775;SDS011;8505;49.456;8.164;2022-07-10T03:04:02;4.80;;;1.70;;
16775;SDS011;8505;49.456;8.164;2022-07-10T03:06:30;4.72;;;1.55;;
16775;SDS011;8505;49.456;8.164;2022-07-10T03:08:59;4.20;;;1.50;;
16775;SDS011;8505;49.456;8.164;2022-07-10T03:11:27;5.13;;;1.80;;
16775;SDS011;8505;49.456;8.164;2022-07-10T03:13:54;6.33;;;1.70;;
16775;SDS011;8505;49.456;8.164;2022-07-10T03:16:22;4.95;;;1.60;;
16775;SDS011;8505;49.456;8.164;2022-07-10T03:18:50;6.93;;;1.80;;
16775;SDS011;8505;49.456;8.164;2022-07-10T03:21:19;5.18;;;1.75;;
16775;SDS011;8505;49.456;8.164;2022-07-10T03:23:46;5.15;;;1.77;;
16775;SDS011;8505;49.456;8.164;2022-07-10T03:26:14;6.75;;;1.70;;
16775;SDS011;8505;49.456;8.164;2022-07-10T03:28:42;4.30;;;1.70;;
16775;SDS011;8505;49.456;8.164;2022-07-10T03:31:09;7.00;;;1.58;;
16775;SDS011;8505;49.456;8.164;2022-07-10T03:33:37;5.97;;;1.88;;
16775;SDS011;8505;49.456;8.164;2022-07-10T03:36:05;5.05;;;1.67;;
16775;SDS011;8505;49.456;8.164;2022-07-10T03:38:34;4.57;;;1.53;;
16775;SDS011;8505;49.456;8.164;2022-07-10T03:41:02;5.53;;;1.88;;
16775;SDS011;8505;49.456;8.164;2022-07-10T03:43:30;5.93;;;1.80;;
16775;SDS011;8505;49.456;8.164;2022-07-10T03:45:58;6.18;;;1.90;;
16775;SDS011;8505;49.456;8.164;2022-07-10T03:48:25;5.03;;;2.00;;
16775;SDS011;8505;49.456;8.164;2022-07-10T03:50:53;5.70;;;1.98;;
16775;SDS011;8505;49.456;8.164;2022-07-10T03:53:21;6.23;;;1.80;;
16775;SDS011;8505;49.456;8.164;2022-07-10T03:55:50;6.18;;;1.80;;
16775;SDS011;8505;49.456;8.164;2022-07-10T03:58:17;5.97;;;1.83;;
16775;SDS011;8505;49.456;8.164;2022-07-10T04:00:44;6.82;;;2.00;;
16775;SDS011;8505;49.456;8.164;2022-07-10T04:03:12;5.03;;;1.85;;
16775;SDS011;8505;49.456;8.164;2022-07-10T04:05:40;6.72;;;1.90;;
16775;SDS011;8505;49.456;8.164;2022-07-10T04:08:07;5.40;;;1.80;;
16775;SDS011;8505;49.456;8.164;2022-07-10T04:10:36;7.40;;;1.73;;
16775;SDS011;8505;49.456;8.164;2022-07-10T04:13:05;5.40;;;1.80;;
16775;SDS011;8505;49.456;8.164;2022-07-10T04:15:32;6.43;;;1.92;;
16775;SDS011;8505;49.456;8.164;2022-07-10T04:18:00;7.95;;;2.10;;
16775;SDS011;8505;49.456;8.164;2022-07-10T04:20:28;4.55;;;1.90;;
16775;SDS011;8505;49.456;8.164;2022-07-10T04:22:56;5.85;;;2.00;;
16775;SDS011;8505;49.456;8.164;2022-07-10T04:25:23;5.05;;;1.70;;
16775;SDS011;8505;49.456;8.164;2022-07-10T04:27:51;5.63;;;1.70;;
16775;SDS011;8505;49.456;8.164;2022-07-10T04:30:21;4.53;;;1.90;;
16775;SDS011;8505;49.456;8.164;2022-07-10T04:32:48;9.45;;;1.95;;
16775;SDS011;8505;49.456;8.164;2022-07-10T04:35:16;4.97;;;1.75;;
16775;SDS011;8505;49.456;8.164;2022-07-10T04:37:44;6.77;;;1.90;;
16775;SDS011;8505;49.456;8.164;2022-07-10T04:40:12;5.50;;;1.73;;
16775;SDS011;8505;49.456;8.164;2022-07-10T04:42:39;7.25;;;1.80;;
16775;SDS011;8505;49.456;8.164;2022-07-10T04:45:07;6.03;;;1.80;;
16775;SDS011;8505;49.456;8.164;2022-07-10T04:47:37;4.20;;;1.60;;
16775;SDS011;8505;49.456;8.164;2022-07-10T04:50:05;5.70;;;1.75;;
16775;SDS011;8505;49.456;8.164;2022-07-10T04:52:33;5.50;;;1.70;;
16775;SDS011;8505;49.456;8.164;2022-07-10T04:55:02;6.18;;;1.90;;
16775;SDS011;8505;49.456;8.164;2022-07-10T04:57:30;6.80;;;2.03;;
16775;SDS011;8505;49.456;8.164;2022-07-10T04:59:57;5.95;;;1.60;;
16775;SDS011;8505;49.456;8.164;2022-07-10T05:02:26;7.50;;;1.73;;
16775;SDS011;8505;49.456;8.164;2022-07-10T05:04:55;7.10;;;1.77;;
16775;SDS011;8505;49.456;8.164;2022-07-10T05:07:23;7.38;;;1.80;;
16775;SDS011;8505;49.456;8.164;2022-07-10T05:09:50;4.50;;;1.55;;
16775;SDS011;8505;49.456;8.164;2022-07-10T05:12:18;4.45;;;1.30;;
16775;SDS011;8505;49.456;8.164;2022-07-10T05:14:45;4.50;;;1.40;;
16775;SDS011;8505;49.456;8.164;2022-07-10T05:17:13;5.57;;;1.48;;
16775;SDS011;8505;49.456;8.164;2022-07-10T05:19:41;7.32;;;1.58;;
16775;SDS011;8505;49.456;8.164;2022-07-10T05:22:10;5.13;;;1.40;;
16775;SDS011;8505;49.456;8.164;2022-07-10T05:24:38;4.30;;;1.20;;
16775;SDS011;8505;49.456;8.164;2022-07-10T05:27:06;4.57;;;1.40;;
16775;SDS011;8505;49.456;8.164;2022-07-10T05:29:33;5.45;;;1.30;;
16775;SDS011;8505;49.456;8.164;2022-07-10T05:32:01;5.15;;;1.30;;
16775;SDS011;8505;49.456;8.164;2022-07-10T05:34:29;4.15;;;1.20;;
16775;SDS011;8505;49.456;8.164;2022-07-10T05:36:57;4.55;;;1.20;;
16775;SDS011;8505;49.456;8.164;2022-07-10T05:39:26;4.15;;;1.20;;
16775;SDS011;8505;49.456;8.164;2022-07-10T05:41:53;4.45;;;1.10;;
16775;SDS011;8505;49.456;8.164;2022-07-10T05:44:22;4.47;;;1.10;;
16775;SDS011;8505;49.456;8.164;2022-07-10T05:46:49;3.95;;;1.00;;
16775;SDS011;8505;49.456;8.164;2022-07-10T05:49:18;4.35;;;1.25;;
16775;SDS011;8505;49.456;8.164;2022-07-10T05:51:45;5.47;;;1.23;;
16775;SDS011;8505;49.456;8.164;2022-07-10T05:54:13;4.55;;;1.17;;
16775;SDS011;8505;49.456;8.164;2022-07-10T05:56:42;3.40;;;1.10;;
16775;SDS011;8505;49.456;8.164;2022-07-10T05:59:11;4.63;;;1.17;;
16775;SDS011;8505;49.456;8.164;2022-07-10T06:01:38;3.75;;;1.10;;
16775;SDS011;8505;49.456;8.164;2022-07-10T06:04:06;4.97;;;1.20;;
16775;SDS011;8505;49.456;8.164;2022-07-10T06:06:34;3.85;;;0.98;;
16775;SDS011;8505;49.456;8.164;2022-07-10T06:09:02;4.22;;;1.05;;
16775;SDS011;8505;49.456;8.164;2022-07-10T06:11:29;4.47;;;1.20;;
16775;SDS011;8505;49.456;8.164;2022-07-10T06:13:58;4.70;;;1.02;;
16775;SDS011;8505;49.456;8.164;2022-07-10T06:16:26;3.60;;;0.90;;
16775;SDS011;8505;49.456;8.164;2022-07-10T06:18:54;2.70;;;0.75;;
16775;SDS011;8505;49.456;8.164;2022-07-10T06:21:22;4.03;;;0.77;;
16775;SDS011;8505;49.456;8.164;2022-07-10T06:23:50;5.32;;;0.93;;
16775;SDS011;8505;49.456;8.164;2022-07-10T06:26:18;2.87;;;0.60;;
16775;SDS011;8505;49.456;8.164;2022-07-10T06:28:45;3.40;;;0.80;;
16775;SDS011;8505;49.456;8.164;2022-07-10T06:31:14;3.73;;;1.03;;
16775;SDS011;8505;49.456;8.164;2022-07-10T06:33:42;4.30;;;1.00;;
16775;SDS011;8505;49.456;8.164;2022-07-10T06:36:10;4.75;;;1.00;;
16775;SDS011;8505;49.456;8.164;2022-07-10T06:38:38;2.75;;;0.70;;
16775;SDS011;8505;49.456;8.164;2022-07-10T06:41:08;3.65;;;1.00;;
16775;SDS011;8505;49.456;8.164;2022-07-10T06:43:36;4.30;;;0.90;;
16775;SDS011;8505;49.456;8.164;2022-07-10T06:46:04;4.90;;;1.00;;
16775;SDS011;8505;49.456;8.164;2022-07-10T06:48:34;4.38;;;0.90;;
16775;SDS011;8505;49.456;8.164;2022-07-10T06:51:04;3.83;;;0.93;;
16775;SDS011;8505;49.456;8.164;2022-07-10T06:53:33;2.85;;;0.80;;
16775;SDS011;8505;49.456;8.164;2022-07-10T06:56:00;4.50;;;1.05;;
16775;SDS011;8505;49.456;8.164;2022-07-10T06:58:28;2.95;;;0.80;;
16775;SDS011;8505;49.456;8.164;2022-07-10T07:00:56;3.88;;;0.80;;
16775;SDS011;8505;49.456;8.164;2022-07-10T07:03:24;5.40;;;1.00;;
16775;SDS011;8505;49.456;8.164;2022-07-10T07:05:53;3.33;;;0.90;;
16775;SDS011;8505;49.456;8.164;2022-07-10T07:08:21;2.00;;;0.77;;
16775;SDS011;8505;49.456;8.164;2022-07-10T07:10:49;4.25;;;0.90;;
16775;SDS011;8505;49.456;8.164;2022-07-10T07:13:16;5.63;;;1.00;;
16775;SDS011;8505;49.456;8.164;2022-07-10T07:15:44;3.15;;;0.80;;
16775;SDS011;8505;49.456;8.164;2022-07-10T07:18:21;3.00;;;0.63;;
16775;SDS011;8505;49.456;8.164;2022-07-10T07:20:59;2.92;;;0.68;;
16775;SDS011;8505;49.456;8.164;2022-07-10T07:23:44;2.60;;;0.70;;
16775;SDS011;8505;49.456;8.164;2022-07-10T07:26:12;4.43;;;0.85;;
16775;SDS011;8505;49.456;8.164;2022-07-10T07:28:40;3.75;;;0.80;;
16775;SDS011;8505;49.456;8.164;2022-07-10T07:31:07;3.47;;;0.85;;
16775;SDS011;8505;49.456;8.164;2022-07-10T07:33:40;3.88;;;0.60;;
16775;SDS011;8505;49.456;8.164;2022-07-10T07:36:09;3.28;;;0.85;;
16775;SDS011;8505;49.456;8.164;2022-07-10T07:38:37;3.83;;;0.70;;
16775;SDS011;8505;49.456;8.164;2022-07-10T07:41:06;2.92;;;0.80;;
16775;SDS011;8505;49.456;8.164;2022-07-10T07:43:35;4.20;;;0.80;;
16775;SDS011;8505;49.456;8.164;2022-07-10T07:46:02;3.08;;;0.88;;
16775;SDS011;8505;49.456;8.164;2022-07-10T07:48:30;4.47;;;0.80;;
16775;SDS011;8505;49.456;8.164;2022-07-10T07:50:58;4.05;;;0.80;;
16775;SDS011;8505;49.456;8.164;2022-07-10T07:53:27;2.97;;;0.80;;
16775;SDS011;8505;49.456;8.164;2022-07-10T07:55:55;3.53;;;0.80;;
16775;SDS011;8505;49.456;8.164;2022-07-10T07:58:22;4.13;;;0.80;;
16775;SDS011;8505;49.456;8.164;2022-07-10T08:00:51;3.50;;;0.98;;
16775;SDS011;8505;49.456;8.164;2022-07-10T08:03:18;2.97;;;0.90;;
16775;SDS011;8505;49.456;8.164;2022-07-10T08:06:02;3.65;;;0.70;;
16775;SDS011;8505;49.456;8.164;2022-07-10T08:08:31;5.25;;;0.90;;
16775;SDS011;8505;49.456;8.164;2022-07-10T08:10:59;3.38;;;0.60;;
16775;SDS011;8505;49.456;8.164;2022-07-10T08:13:26;2.80;;;0.70;;
16775;SDS011;8505;49.456;8.164;2022-07-10T08:15:55;3.97;;;0.83;;
16775;SDS011;8505;49.456;8.164;2022-07-10T08:18:27;3.70;;;0.90;;
16775;SDS011;8505;49.456;8.164;2022-07-10T08:20:55;4.15;;;0.70;;
16775;SDS011;8505;49.456;8.164;2022-07-10T08:23:23;3.87;;;0.90;;
16775;SDS011;8505;49.456;8.164;2022-07-10T08:25:51;3.80;;;0.90;;
16775;SDS011;8505;49.456;8.164;2022-07-10T08:28:19;3.03;;;0.70;;
16775;SDS011;8505;49.456;8.164;2022-07-10T08:30:49;3.75;;;0.70;;
16775;SDS011;8505;49.456;8.164;2022-07-10T08:33:17;2.83;;;0.70;;
16775;SDS011;8505;49.456;8.164;2022-07-10T08:35:45;3.40;;;0.63;;
16775;SDS011;8505;49.456;8.164;2022-07-10T08:38:15;3.10;;;0.70;;
16775;SDS011;8505;49.456;8.164;2022-07-10T08:40:43;4.18;;;0.80;;
16775;SDS011;8505;49.456;8.164;2022-07-10T08:43:14;3.53;;;0.82;;
16775;SDS011;8505;49.456;8.164;2022-07-10T08:45:43;2.95;;;0.68;;
16775;SDS011;8505;49.456;8.164;2022-07-10T08:48:10;2.43;;;0.60;;
16775;SDS011;8505;49.456;8.164;2022-07-10T08:50:42;3.25;;;0.80;;
16775;SDS011;8505;49.456;8.164;2022-07-10T08:53:12;4.63;;;0.90;;
16775;SDS011;8505;49.456;8.164;2022-07-10T08:55:43;3.72;;;1.00;;
16775;SDS011;8505;49.456;8.164;2022-07-10T08:58:10;3.80;;;0.82;;
16775;SDS011;8505;49.456;8.164;2022-07-10T09:00:41;2.80;;;0.70;;
16775;SDS011;8505;49.456;8.164;2022-07-10T09:03:08;3.67;;;0.70;;
16775;SDS011;8505;49.456;8.164;2022-07-10T09:05:36;3.22;;;0.70;;
16775;SDS011;8505;49.456;8.164;2022-07-10T09:08:04;3.33;;;0.70;;
16775;SDS011;8505;49.456;8.164;2022-07-10T09:10:48;3.83;;;0.70;;
16775;SDS011;8505;49.456;8.164;2022-07-10T09:13:16;4.90;;;0.90;;
16775;SDS011;8505;49.456;8.164;2022-07-10T09:15:49;2.88;;;0.77;;
16775;SDS011;8505;49.456;8.164;2022-07-10T09:18:18;4.57;;;0.90;;
16775;SDS011;8505;49.456;8.164;2022-07-10T09:20:46;3.05;;;0.80;;
16775;SDS011;8505;49.456;8.164;2022-07-10T09:23:16;4.45;;;1.10;;
16775;SDS011;8505;49.456;8.164;2022-07-10T09:25:45;3.60;;;0.80;;
16775;SDS011;8505;49.456;8.164;2022-07-10T09:28:15;3.57;;;0.80;;
16775;SDS011;8505;49.456;8.164;2022-07-10T09:30:43;3.47;;;0.82;;
16775;SDS011;8505;49.456;8.164;2022-07-10T09:36:01;3.72;;;0.80;;
16775;SDS011;8505;49.456;8.164;2022-07-10T09:38:49;3.77;;;0.83;;
16775;SDS011;8505;49.456;8.164;2022-07-10T09:41:20;4.63;;;0.73;;
16775;SDS011;8505;49.456;8.164;2022-07-10T09:43:50;3.42;;;0.70;;
16775;SDS011;8505;49.456;8.164;2022-07-10T09:46:19;4.38;;;0.70;;
16775;SDS011;8505;49.456;8.164;2022-07-10T09:48:51;1.95;;;0.60;;
16775;SDS011;8505;49.456;8.164;2022-07-10T09:51:29;1.92;;;0.70;;
16775;SDS011;8505;49.456;8.164;2022-07-10T09:54:00;3.10;;;0.90;;
16775;SDS011;8505;49.456;8.164;2022-07-10T09:59:13;2.70;;;0.70;;
16775;SDS011;8505;49.456;8.164;2022-07-10T10:01:43;4.05;;;0.70;;
16775;SDS011;8505;49.456;8.164;2022-07-10T10:04:14;2.53;;;0.75;;
16775;SDS011;8505;49.456;8.164;2022-07-10T10:06:43;3.63;;;0.77;;
16775;SDS011;8505;49.456;8.164;2022-07-10T10:09:15;2.55;;;0.88;;
16775;SDS011;8505;49.456;8.164;2022-07-10T10:11:49;4.50;;;1.05;;
16775;SDS011;8505;49.456;8.164;2022-07-10T10:14:23;3.13;;;0.63;;
16775;SDS011;8505;49.456;8.164;2022-07-10T10:16:54;3.50;;;0.73;;
16775;SDS011;8505;49.456;8.164;2022-07-10T10:19:25;1.92;;;0.60;;
16775;SDS011;8505;49.456;8.164;2022-07-10T10:22:11;3.83;;;0.90;;
16775;SDS011;8505;49.456;8.164;2022-07-10T10:24:42;3.15;;;0.80;;
16775;SDS011;8505;49.456;8.164;2022-07-10T10:27:09;2.70;;;0.80;;
16775;SDS011;8505;49.456;8.164;2022-07-10T10:29:38;3.70;;;0.90;;
16775;SDS011;8505;49.456;8.164;2022-07-10T10:32:07;4.45;;;0.77;;
16775;SDS011;8505;49.456;8.164;2022-07-10T10:34:41;3.50;;;0.70;;
16775;SDS011;8505;49.456;8.164;2022-07-10T10:40:02;3.83;;;1.00;;
16775;SDS011;8505;49.456;8.164;2022-07-10T10:42:32;3.78;;;0.88;;
16775;SDS011;8505;49.456;8.164;2022-07-10T10:45:21;5.38;;;1.00;;
16775;SDS011;8505;49.456;8.164;2022-07-10T10:47:57;2.55;;;0.88;;
16775;SDS011;8505;49.456;8.164;2022-07-10T10:50:47;3.03;;;0.77;;
16775;SDS011;8505;49.456;8.164;2022-07-10T10:53:16;3.27;;;0.80;;
16775;SDS011;8505;49.456;8.164;2022-07-10T10:58:48;3.20;;;0.80;;
16775;SDS011;8505;49.456;8.164;2022-07-10T11:01:24;3.72;;;0.90;;
16775;SDS011;8505;49.456;8.164;2022-07-10T11:06:46;3.10;;;0.90;;
16775;SDS011;8505;49.456;8.164;2022-07-10T11:09:23;4.03;;;0.90;;
16775;SDS011;8505;49.456;8.164;2022-07-10T11:12:04;4.83;;;0.90;;
16775;SDS011;8505;49.456;8.164;2022-07-10T11:14:33;4.80;;;1.23;;
16775;SDS011;8505;49.456;8.164;2022-07-10T11:17:03;5.95;;;1.10;;
16775;SDS011;8505;49.456;8.164;2022-07-10T11:19:32;4.57;;;0.88;;
16775;SDS011;8505;49.456;8.164;2022-07-10T11:22:25;5.40;;;1.17;;
16775;SDS011;8505;49.456;8.164;2022-07-10T11:25:22;2.90;;;0.80;;
16775;SDS011;8505;49.456;8.164;2022-07-10T11:28:04;3.58;;;0.90;;
16775;SDS011;8505;49.456;8.164;2022-07-10T11:30:44;5.07;;;0.90;;
16775;SDS011;8505;49.456;8.164;2022-07-10T11:33:13;5.18;;;1.10;;
16775;SDS011;8505;49.456;8.164;2022-07-10T11:35:44;2.97;;;1.02;;
16775;SDS011;8505;49.456;8.164;2022-07-10T11:38:19;3.20;;;1.00;;
16775;SDS011;8505;49.456;8.164;2022-07-10T11:40:48;4.00;;;1.00;;
16775;SDS011;8505;49.456;8.164;2022-07-10T11:43:16;3.95;;;1.00;;
16775;SDS011;8505;49.456;8.164;2022-07-10T11:45:46;3.87;;;1.00;;
16775;SDS011;8505;49.456;8.164;2022-07-10T11:48:16;3.10;;;0.95;;
16775;SDS011;8505;49.456;8.164;2022-07-10T11:50:45;3.92;;;1.00;;
16775;SDS011;8505;49.456;8.164;2022-07-10T11:53:13;3.28;;;0.90;;
16775;SDS011;8505;49.456;8.164;2022-07-10T11:55:42;3.50;;;1.10;;
16775;SDS011;8505;49.456;8.164;2022-07-10T11:58:13;4.57;;;1.00;;
16775;SDS011;8505;49.456;8.164;2022-07-10T12:00:42;4.53;;;1.10;;
16775;SDS011;8505;49.456;8.164;2022-07-10T12:03:17;4.20;;;1.10;;
16775;SDS011;8505;49.456;8.164;2022-07-10T12:05:54;4.18;;;1.00;;
16775;SDS011;8505;49.456;8.164;2022-07-10T12:08:22;3.20;;;1.00;;
16775;SDS011;8505;49.456;8.164;2022-07-10T12:10:51;3.03;;;1.10;;
16775;SDS011;8505;49.456;8.164;2022-07-10T12:13:19;3.78;;;1.10;;
16775;SDS011;8505;49.456;8.164;2022-07-10T12:15:46;4.07;;;1.02;;
16775;SDS011;8505;49.456;8.164;2022-07-10T12:18:15;4.40;;;1.23;;
16775;SDS011;8505;49.456;8.164;2022-07-10T12:20:45;4.25;;;1.00;;
16775;SDS011;8505;49.456;8.164;2022-07-10T12:23:14;4.10;;;1.23;;
16775;SDS011;8505;49.456;8.164;2022-07-10T12:25:43;5.35;;;1.20;;
16775;SDS011;8505;49.456;8.164;2022-07-10T12:28:13;7.18;;;1.20;;
16775;SDS011;8505;49.456;8.164;2022-07-10T12:30:41;2.83;;;1.03;;
16775;SDS011;8505;49.456;8.164;2022-07-10T12:33:10;3.70;;;1.08;;
16775;SDS011;8505;49.456;8.164;2022-07-10T12:35:49;4.93;;;1.13;;
16775;SDS011;8505;49.456;8.164;2022-07-10T12:38:18;4.15;;;1.10;;
16775;SDS011;8505;49.456;8.164;2022-07-10T12:40:46;3.50;;;1.00;;
16775;SDS011;8505;49.456;8.164;2022-07-10T12:43:26;2.80;;;0.93;;
16775;SDS011;8505;49.456;8.164;2022-07-10T12:46:10;4.53;;;1.13;;
16775;SDS011;8505;49.456;8.164;2022-07-10T12:48:41;3.42;;;1.08;;
16775;SDS011;8505;49.456;8.164;2022-07-10T12:51:21;4.60;;;1.10;;
16775;SDS011;8505;49.456;8.164;2022-07-10T12:53:50;4.07;;;1.05;;
16775;SDS011;8505;49.456;8.164;2022-07-10T12:56:30;2.67;;;1.10;;
16775;SDS011;8505;49.456;8.164;2022-07-10T12:59:04;3.33;;;1.10;;
16775;SDS011;8505;49.456;8.164;2022-07-10T13:01:40;5.93;;;1.20;;
16775;SDS011;8505;49.456;8.164;2022-07-10T13:04:09;2.80;;;1.00;;
16775;SDS011;8505;49.456;8.164;2022-07-10T13:06:38;4.43;;;1.20;;
16775;SDS011;8505;49.456;8.164;2022-07-10T13:09:20;3.22;;;1.00;;
16775;SDS011;8505;49.456;8.164;2022-07-10T13:11:49;3.50;;;1.10;;
16775;SDS011;8505;49.456;8.164;2022-07-10T13:14:19;4.05;;;1.00;;
16775;SDS011;8505;49.456;8.164;2022-07-10T13:16:48;3.23;;;0.93;;
16775;SDS011;8505;49.456;8.164;2022-07-10T13:19:16;2.65;;;0.98;;
16775;SDS011;8505;49.456;8.164;2022-07-10T13:21:45;4.05;;;0.90;;
16775;SDS011;8505;49.456;8.164;2022-07-10T13:24:13;4.82;;;1.10;;
16775;SDS011;8505;49.456;8.164;2022-07-10T13:26:41;5.65;;;0.90;;
16775;SDS011;8505;49.456;8.164;2022-07-10T13:29:09;3.47;;;1.00;;
16775;SDS011;8505;49.456;8.164;2022-07-10T13:31:38;2.67;;;0.83;;
16775;SDS011;8505;49.456;8.164;2022-07-10T13:34:06;4.10;;;0.90;;
16775;SDS011;8505;49.456;8.164;2022-07-10T13:36:34;2.40;;;0.90;;
16775;SDS011;8505;49.456;8.164;2022-07-10T13:39:02;3.53;;;0.70;;
16775;SDS011;8505;49.456;8.164;2022-07-10T13:41:30;2.75;;;0.82;;
16775;SDS011;8505;49.456;8.164;2022-07-10T13:43:58;2.80;;;0.80;;
16775;SDS011;8505;49.456;8.164;2022-07-10T13:46:25;3.50;;;0.70;;
16775;SDS011;8505;49.456;8.164;2022-07-10T13:48:56;3.25;;;0.90;;
16775;SDS011;8505;49.456;8.164;2022-07-10T13:51:23;3.35;;;0.98;;
16775;SDS011;8505;49.456;8.164;2022-07-10T13:53:51;2.72;;;0.90;;
16775;SDS011;8505;49.456;8.164;2022-07-10T13:56:19;3.75;;;0.90;;
16775;SDS011;8505;49.456;8.164;2022-07-10T13:58:46;3.70;;;0.95;;
16775;SDS011;8505;49.456;8.164;2022-07-10T14:01:15;2.67;;;0.90;;
16775;SDS011;8505;49.456;8.164;2022-07-10T14:03:42;3.40;;;0.90;;
16775;SDS011;8505;49.456;8.164;2022-07-10T14:06:11;3.20;;;0.90;;
16775;SDS011;8505;49.456;8.164;2022-07-10T14:08:39;2.17;;;0.80;;
16775;SDS011;8505;49.456;8.164;2022-07-10T14:11:07;2.97;;;0.88;;
16775;SDS011;8505;49.456;8.164;2022-07-10T14:13:35;2.95;;;0.85;;
16775;SDS011;8505;49.456;8.164;2022-07-10T14:16:03;3.13;;;0.80;;
16775;SDS011;8505;49.456;8.164;2022-07-10T14:18:31;3.33;;;0.73;;
16775;SDS011;8505;49.456;8.164;2022-07-10T14:21:04;2.60;;;0.83;;
16775;SDS011;8505;49.456;8.164;2022-07-10T14:23:37;3.80;;;1.00;;
16775;SDS011;8505;49.456;8.164;2022-07-10T14:26:08;5.03;;;0.93;;
16775;SDS011;8505;49.456;8.164;2022-07-10T14:28:36;3.03;;;0.90;;
16775;SDS011;8505;49.456;8.164;2022-07-10T14:31:05;4.47;;;0.82;;
16775;SDS011;8505;49.456;8.164;2022-07-10T14:33:34;3.15;;;0.80;;
16775;SDS011;8505;49.456;8.164;2022-07-10T14:36:02;3.00;;;0.80;;
16775;SDS011;8505;49.456;8.164;2022-07-10T14:38:31;3.33;;;0.90;;
16775;SDS011;8505;49.456;8.164;2022-07-10T14:41:00;2.65;;;0.80;;
16775;SDS011;8505;49.456;8.164;2022-07-10T14:43:28;3.50;;;1.00;;
16775;SDS011;8505;49.456;8.164;2022-07-10T14:45:59;2.88;;;0.70;;
16775;SDS011;8505;49.456;8.164;2022-07-10T14:48:30;3.45;;;1.00;;
16775;SDS011;8505;49.456;8.164;2022-07-10T14:50:58;3.70;;;0.90;;
16775;SDS011;8505;49.456;8.164;2022-07-10T14:53:25;2.08;;;0.90;;
16775;SDS011;8505;49.456;8.164;2022-07-10T14:55:53;3.00;;;0.77;;
16775;SDS011;8505;49.456;8.164;2022-07-10T14:58:22;1.80;;;0.80;;
16775;SDS011;8505;49.456;8.164;2022-07-10T15:00:50;3.97;;;0.85;;
16775;SDS011;8505;49.456;8.164;2022-07-10T15:03:20;1.58;;;0.80;;
16775;SDS011;8505;49.456;8.164;2022-07-10T15:05:48;3.40;;;0.80;;
16775;SDS011;8505;49.456;8.164;2022-07-10T15:08:19;2.15;;;0.70;;
16775;SDS011;8505;49.456;8.164;2022-07-10T15:10:47;2.40;;;0.70;;
16775;SDS011;8505;49.456;8.164;2022-07-10T15:13:15;2.13;;;0.90;;
16775;SDS011;8505;49.456;8.164;2022-07-10T15:15:45;2.17;;;0.70;;
16775;SDS011;8505;49.456;8.164;2022-07-10T15:18:14;1.52;;;0.70;;
16775;SDS011;8505;49.456;8.164;2022-07-10T15:20:42;3.63;;;1.02;;
16775;SDS011;8505;49.456;8.164;2022-07-10T15:23:10;2.60;;;0.85;;
16775;SDS011;8505;49.456;8.164;2022-07-10T15:25:38;2.00;;;0.60;;
16775;SDS011;8505;49.456;8.164;2022-07-10T15:28:06;2.22;;;0.60;;